Time;durP1;ratioP1;P1;durP2;ratioP2;P2;SDS_P1;SDS_P2;PMS_P1;PMS_P2;Temp;Humidity;BMP_temperature;BMP_pressure;BME280_temperature;BME280_humidity;BME280_pressure;Samples;Min_cycle;Max_cycle;Signal;HPM_P1;HPM_P2
2022/11/03 03:47:51;;;;;;;9.65;3.80;;;8.30;99.90;;;;;;5111511;23;1240679;-74
2022/11/03 03:50:17;;;;;;;11.60;4.45;;;8.30;99.90;;;;;;4885365;28;86739;-74
2022/11/03 03:52:43;;;;;;;8.57;3.97;;;8.40;99.90;;;;;;4897440;28;87371;-75
2022/11/03 03:55:17;;;;;;;9.60;4.20;;;8.50;99.90;;;;;;4898328;28;86933;-75
2022/11/03 03:57:43;;;;;;;7.88;3.58;;;8.50;99.90;;;;;;4888779;28;86927;-74
2022/11/03 04:00:14;;;;;;;9.27;3.33;;;8.50;99.90;;;;;;4893556;28;86030;-75
2022/11/03 04:02:40;;;;;;;10.52;3.85;;;8.60;99.90;;;;;;4897148;28;86739;-75
2022/11/03 04:05:06;;;;;;;10.00;3.75;;;8.60;99.90;;;;;;4897505;28;88099;-75
2022/11/03 04:07:47;;;;;;;8.43;3.72;;;8.60;99.90;;;;;;4900930;28;87721;-74
2022/11/03 04:10:14;;;;;;;8.93;3.72;;;8.70;99.90;;;;;;4892196;28;87005;-74
2022/11/03 04:23:49;;;;;;;12.43;4.40;;;8.90;99.90;;;;;;4900677;28;87033;-73
2022/11/03 04:26:17;;;;;;;9.63;4.03;;;8.90;99.90;;;;;;4899852;28;86887;-74
2022/11/03 04:28:43;;;;;;;11.40;5.07;;;8.90;99.90;;;;;;4889793;28;86734;-74
2022/11/03 04:31:14;;;;;;;10.65;4.57;;;8.90;99.90;;;;;;4899911;28;86415;-74
2022/11/03 04:33:40;;;;;;;15.85;6.80;;;8.90;99.90;;;;;;4894238;28;88184;-75
2022/11/03 04:36:25;;;;;;;12.68;4.75;;;8.80;99.90;;;;;;4887021;28;87941;-74
2022/11/03 04:38:51;;;;;;;10.07;4.28;;;8.60;99.90;;;;;;4889639;28;86772;-73
2022/11/03 04:41:37;;;;;;;6.90;2.88;;;8.50;99.90;;;;;;4892026;28;86341;-73
2022/11/03 04:44:10;;;;;;;10.18;3.22;;;8.50;99.90;;;;;;4889621;28;89805;-77
2022/11/03 04:46:35;;;;;;;8.40;2.80;;;8.50;99.90;;;;;;4899240;28;86961;-74
2022/11/03 04:49:03;;;;;;;6.68;2.75;;;8.40;99.90;;;;;;4883227;28;86840;-73
2022/11/03 04:51:31;;;;;;;4.10;1.73;;;8.30;99.90;;;;;;4897686;28;86069;-72
2022/11/03 04:54:15;;;;;;;4.88;1.48;;;8.20;99.90;;;;;;4893734;28;86893;-73
2022/11/03 04:56:41;;;;;;;5.10;1.77;;;8.10;99.90;;;;;;4888187;28;86601;-75
2022/11/03 04:59:15;;;;;;;6.20;1.95;;;8.10;99.90;;;;;;4899926;28;87565;-75
2022/11/03 05:01:42;;;;;;;5.32;2.13;;;8.10;99.90;;;;;;4898515;28;86316;-72
2022/11/03 05:04:12;;;;;;;6.50;2.00;;;8.10;99.90;;;;;;4897458;28;86821;-73
2022/11/03 05:06:39;;;;;;;5.80;2.08;;;8.20;99.90;;;;;;4894459;28;88105;-74
2022/11/03 05:09:15;;;;;;;4.78;2.00;;;8.10;99.90;;;;;;4881994;28;87082;-75
2022/11/03 05:11:44;;;;;;;5.60;1.83;;;8.10;99.90;;;;;;4892979;28;86518;-76
2022/11/03 05:14:20;;;;;;;5.28;1.83;;;8.10;99.90;;;;;;4881458;28;88281;-74
2022/11/03 05:16:47;;;;;;;4.82;1.90;;;8.10;99.90;;;;;;4882959;28;87257;-75
2022/11/03 05:19:33;;;;;;;5.53;2.03;;;8.00;99.90;;;;;;4893193;28;86360;-76
2022/11/03 05:22:01;;;;;;;5.95;1.70;;;7.90;99.90;;;;;;4888330;28;86396;-73
2022/11/03 05:24:28;;;;;;;7.65;2.10;;;7.80;99.90;;;;;;4893209;28;87908;-73
2022/11/03 05:26:56;;;;;;;5.05;2.17;;;7.80;99.90;;;;;;4887756;28;87901;-74
2022/11/03 05:29:34;;;;;;;5.88;2.35;;;7.70;99.90;;;;;;4888680;28;87217;-73
2022/11/03 05:32:00;;;;;;;5.10;1.92;;;7.60;99.90;;;;;;4884977;28;87482;-74
2022/11/03 05:34:29;;;;;;;7.65;2.53;;;7.50;99.90;;;;;;4898254;28;87237;-73
2022/11/03 05:36:55;;;;;;;5.70;2.42;;;7.50;99.90;;;;;;4896574;28;88054;-73
2022/11/03 05:39:37;;;;;;;10.32;3.30;;;7.50;99.90;;;;;;4893517;28;88058;-72
2022/11/03 05:42:21;;;;;;;11.25;4.60;;;7.50;99.90;;;;;;4885853;28;85845;-75
2022/11/03 05:44:48;;;;;;;8.48;2.80;;;7.60;99.90;;;;;;4899765;28;86618;-72
2022/11/03 05:47:21;;;;;;;6.85;2.70;;;7.70;99.90;;;;;;4892965;28;86579;-73
2022/11/03 05:49:54;;;;;;;7.30;2.90;;;7.90;99.90;;;;;;4885535;28;88496;-72
2022/11/03 05:52:25;;;;;;;6.35;2.55;;;8.00;99.90;;;;;;4893830;28;87995;-74
2022/11/03 05:54:57;;;;;;;7.28;2.85;;;8.10;99.90;;;;;;4889155;28;87071;-74
2022/11/03 05:57:27;;;;;;;7.80;3.45;;;8.20;99.90;;;;;;4892585;28;88631;-72
2022/11/03 05:59:53;;;;;;;6.78;3.20;;;8.30;99.90;;;;;;4889093;28;86732;-74
2022/11/03 06:02:31;;;;;;;9.02;2.92;;;8.40;99.90;;;;;;4893984;28;86664;-75
2022/11/03 06:04:58;;;;;;;15.73;4.10;;;8.40;99.90;;;;;;4887720;28;87330;-74
2022/11/03 06:07:29;;;;;;;7.13;2.83;;;8.50;99.90;;;;;;4893654;28;86221;-73
2022/11/03 06:09:55;;;;;;;7.70;3.05;;;8.50;99.90;;;;;;4884565;28;86259;-74
2022/11/03 06:12:22;;;;;;;9.07;2.85;;;8.50;99.90;;;;;;4893208;28;87008;-76
2022/11/03 06:14:48;;;;;;;7.22;2.90;;;8.50;99.90;;;;;;4892083;28;87684;-73
2022/11/03 06:17:25;;;;;;;7.03;3.30;;;8.50;99.90;;;;;;4887930;28;87483;-73
2022/11/03 06:19:57;;;;;;;10.27;3.63;;;8.60;99.90;;;;;;4884311;28;86696;-74
2022/11/03 06:22:34;;;;;;;7.97;3.50;;;8.60;99.90;;;;;;4881125;28;87453;-73
2022/11/03 06:25:09;;;;;;;10.95;2.35;;;8.50;99.90;;;;;;4887458;28;87020;-73
2022/11/03 06:27:35;;;;;;;6.03;1.88;;;8.50;99.90;;;;;;4888333;28;88014;-75
2022/11/03 06:30:24;;;;;;;4.95;1.73;;;8.50;99.90;;;;;;4893042;28;86980;-75
2022/11/03 06:32:49;;;;;;;7.38;1.63;;;8.40;99.90;;;;;;4887044;28;86213;-74
2022/11/03 06:35:16;;;;;;;3.45;1.10;;;8.30;99.90;;;;;;4887566;28;87227;-75
2022/11/03 06:37:43;;;;;;;6.03;1.30;;;8.30;99.90;;;;;;4881858;28;87005;-74
2022/11/03 06:40:08;;;;;;;17.30;2.83;;;8.10;99.90;;;;;;4887108;28;87258;-74
2022/11/03 06:42:34;;;;;;;4.78;1.65;;;8.10;99.90;;;;;;4888211;28;87559;-76
2022/11/03 06:45:09;;;;;;;12.82;2.40;;;8.10;99.90;;;;;;4892521;28;87190;-75
2022/11/03 06:47:35;;;;;;;10.73;2.80;;;8.20;99.90;;;;;;4891765;28;87109;-74
2022/11/03 06:50:01;;;;;;;15.57;3.30;;;8.30;99.90;;;;;;4882751;28;86793;-73
2022/11/03 06:52:29;;;;;;;14.73;3.25;;;8.40;99.90;;;;;;4891752;28;87049;-73
2022/11/03 06:55:18;;;;;;;21.00;3.28;;;8.50;99.90;;;;;;4890108;28;88246;-75
2022/11/03 06:57:47;;;;;;;44.22;3.65;;;8.60;99.90;;;;;;4886322;28;87067;-74
2022/11/03 07:00:24;;;;;;;80.18;4.78;;;8.70;99.90;;;;;;4894052;28;86362;-74
2022/11/03 07:03:26;;;;;;;43.38;4.70;;;8.80;99.90;;;;;;4890567;28;86804;-73
2022/11/03 07:06:05;;;;;;;60.00;4.50;;;8.90;99.90;;;;;;4885413;28;87993;-75
2022/11/03 07:08:36;;;;;;;57.55;4.35;;;9.20;99.90;;;;;;4892865;28;87958;-76
2022/11/03 07:11:16;;;;;;;28.40;4.15;;;9.30;99.90;;;;;;4887609;28;88832;-73
2022/11/03 07:13:42;;;;;;;44.35;4.72;;;10.10;99.90;;;;;;4895368;28;86489;-77
2022/11/03 07:16:15;;;;;;;11.02;4.18;;;11.00;99.90;;;;;;4888570;28;87396;-74
2022/11/03 07:18:42;;;;;;;29.95;4.65;;;11.60;97.50;;;;;;4898776;28;86952;-73
2022/11/03 07:21:39;;;;;;;41.08;5.80;;;11.80;94.90;;;;;;4895085;28;87194;-74
2022/11/03 07:24:37;;;;;;;15.80;5.07;;;11.60;94.80;;;;;;4884767;28;87519;-75
2022/11/03 07:27:15;;;;;;;11.60;4.07;;;11.90;94.30;;;;;;4891176;28;86582;-74
2022/11/03 07:29:41;;;;;;;10.13;3.67;;;12.50;93.20;;;;;;4894350;28;87211;-75
2022/11/03 07:32:23;;;;;;;8.13;3.53;;;14.00;90.90;;;;;;4897231;28;87163;-74
2022/11/03 07:34:52;;;;;;;8.10;2.60;;;14.90;83.40;;;;;;4893772;28;86282;-72
2022/11/03 07:37:21;;;;;;;7.93;2.60;;;15.10;79.60;;;;;;4892919;28;87271;-73
2022/11/03 07:39:50;;;;;;;6.68;2.60;;;15.30;76.90;;;;;;4891948;28;86730;-73
2022/11/03 07:42:24;;;;;;;7.10;3.05;;;15.60;75.00;;;;;;4888008;28;86400;-73
2022/11/03 07:44:51;;;;;;;9.50;3.30;;;15.50;73.50;;;;;;4886396;28;86745;-76
2022/11/03 07:47:25;;;;;;;7.28;3.67;;;15.30;75.90;;;;;;4891931;28;87217;-74
2022/11/03 07:49:52;;;;;;;6.82;3.10;;;15.50;76.70;;;;;;4894297;28;86100;-75
2022/11/03 07:52:23;;;;;;;9.10;3.03;;;15.90;73.50;;;;;;4894088;28;86257;-72
2022/11/03 07:54:57;;;;;;;8.00;4.03;;;15.70;75.50;;;;;;4886550;28;86914;-75
2022/11/03 07:57:29;;;;;;;17.05;3.53;;;15.90;73.80;;;;;;4883341;28;87486;-75
2022/11/03 08:00:12;;;;;;;7.45;3.22;;;16.90;72.40;;;;;;4883597;28;87909;-74
2022/11/03 08:02:43;;;;;;;;;;;18.30;67.80;;;;;;4892181;28;86588;-74
2022/11/03 08:05:09;;;;;;;7.63;4.30;;;19.50;63.20;;;;;;4891824;28;86218;-74
2022/11/03 08:07:35;;;;;;;7.70;3.92;;;20.50;62.80;;;;;;4887765;28;86544;-75
2022/11/03 08:10:00;;;;;;;8.50;3.88;;;21.50;61.20;;;;;;4886806;28;88254;-75
2022/11/03 08:12:26;;;;;;;9.05;3.45;;;22.80;56.20;;;;;;4887852;28;86914;-74
2022/11/03 08:14:52;;;;;;;7.55;4.40;;;23.20;54.70;;;;;;4900752;28;86375;-75
2022/11/03 08:17:17;;;;;;;8.45;4.20;;;22.30;55.90;;;;;;4895555;28;87309;-77
2022/11/03 08:19:43;;;;;;;9.23;4.40;;;21.60;57.90;;;;;;4894734;28;86309;-73
2022/11/03 08:22:09;;;;;;;12.55;5.30;;;21.80;57.30;;;;;;4896794;28;87915;-76
2022/11/03 08:24:34;;;;;;;9.18;4.75;;;22.00;57.50;;;;;;4882953;28;86723;-72
2022/11/03 08:27:02;;;;;;;8.80;5.10;;;21.70;57.50;;;;;;4895928;28;87225;-75
2022/11/03 08:29:27;;;;;;;12.98;6.30;;;20.50;59.20;;;;;;4899726;28;86831;-74
2022/11/03 08:31:53;;;;;;;11.50;5.57;;;19.70;61.00;;;;;;4888411;28;86508;-74
2022/11/03 08:34:19;;;;;;;10.48;4.45;;;19.10;62.60;;;;;;4887189;28;86261;-75
2022/11/03 08:36:45;;;;;;;8.23;5.13;;;18.70;63.90;;;;;;4896080;28;86606;-74
2022/11/03 08:39:10;;;;;;;9.77;5.53;;;18.20;65.20;;;;;;4881535;28;86592;-73
2022/11/03 08:41:36;;;;;;;12.52;4.78;;;17.70;67.30;;;;;;4881240;28;86234;-74
2022/11/03 08:44:02;;;;;;;9.68;4.50;;;17.10;69.10;;;;;;4884443;28;86520;-74
2022/11/03 08:46:27;;;;;;;8.80;4.38;;;16.80;70.70;;;;;;4888372;28;87632;-73
2022/11/03 08:48:53;;;;;;;10.55;4.78;;;16.60;71.60;;;;;;4884015;28;87899;-75
2022/11/03 08:51:19;;;;;;;13.98;4.40;;;16.30;72.00;;;;;;4894993;28;86846;-72
2022/11/03 08:53:49;;;;;;;13.75;4.78;;;16.20;73.00;;;;;;4890570;28;86405;-74
2022/11/03 08:56:15;;;;;;;15.50;5.88;;;16.00;73.50;;;;;;4886986;28;89045;-74
2022/11/03 08:58:41;;;;;;;12.27;5.07;;;15.80;74.90;;;;;;4899328;28;87055;-73
2022/11/03 09:01:07;;;;;;;13.55;6.30;;;15.60;76.30;;;;;;4896574;28;87157;-74
2022/11/03 09:03:33;;;;;;;15.00;5.25;;;15.40;78.70;;;;;;4883482;28;86097;-74
2022/11/03 09:05:58;;;;;;;12.52;4.90;;;15.20;78.90;;;;;;4884035;28;87278;-75
2022/11/03 09:08:24;;;;;;;15.05;5.38;;;15.00;79.00;;;;;;4891603;28;86272;-74
2022/11/03 09:10:49;;;;;;;12.80;4.70;;;14.90;79.90;;;;;;4892599;28;87763;-73
2022/11/03 09:13:15;;;;;;;9.30;4.68;;;14.90;80.50;;;;;;4883088;28;86907;-74
2022/11/03 09:15:41;;;;;;;10.48;5.30;;;14.80;80.50;;;;;;4887736;28;87022;-74
2022/11/03 09:18:06;;;;;;;14.77;5.47;;;14.60;81.80;;;;;;4888585;28;87368;-73
2022/11/03 09:20:32;;;;;;;12.82;4.80;;;14.50;82.40;;;;;;4891431;28;86464;-72
2022/11/03 09:22:58;;;;;;;12.15;5.15;;;14.40;83.40;;;;;;4892229;28;87022;-74
2022/11/03 09:25:23;;;;;;;10.68;5.85;;;14.20;84.30;;;;;;4888521;28;87284;-73
2022/11/03 09:27:49;;;;;;;14.40;6.20;;;14.10;85.10;;;;;;4890262;28;86952;-73
2022/11/03 09:30:16;;;;;;;10.43;5.28;;;14.10;84.60;;;;;;4892316;28;86978;-72
2022/11/03 09:32:42;;;;;;;11.52;5.97;;;14.10;85.00;;;;;;4893206;28;86435;-74
2022/11/03 09:35:08;;;;;;;13.10;7.40;;;13.90;86.50;;;;;;4895383;28;88143;-73
2022/11/03 09:37:34;;;;;;;13.32;7.07;;;13.80;86.90;;;;;;4887389;28;87061;-75
2022/11/03 09:40:00;;;;;;;13.70;6.90;;;13.80;87.20;;;;;;4888772;28;86299;-73
2022/11/03 09:42:26;;;;;;;13.13;6.25;;;13.80;87.60;;;;;;4882249;28;86987;-74
2022/11/03 09:44:53;;;;;;;14.02;6.75;;;13.70;88.50;;;;;;4890865;28;88069;-73
2022/11/03 09:47:28;;;;;;;15.30;7.82;;;13.70;89.50;;;;;;4890815;28;86802;-73
2022/11/03 09:49:55;;;;;;;13.15;6.57;;;13.70;89.70;;;;;;4893583;28;86318;-73
2022/11/03 09:52:23;;;;;;;20.60;12.38;;;13.60;90.00;;;;;;4884683;28;86198;-75
2022/11/03 09:54:53;;;;;;;21.17;9.30;;;13.70;90.10;;;;;;4897048;28;86557;-73
2022/11/03 09:57:18;;;;;;;14.77;7.00;;;13.70;90.40;;;;;;4884793;28;87984;-73
2022/11/03 09:59:47;;;;;;;12.70;6.70;;;13.60;90.30;;;;;;4893745;28;87919;-75
2022/11/03 10:02:29;;;;;;;15.88;6.30;;;13.70;90.90;;;;;;4883245;28;86695;-73
2022/11/03 10:05:00;;;;;;;14.15;6.75;;;13.70;90.60;;;;;;4888176;28;88058;-73
2022/11/03 10:07:28;;;;;;;12.23;6.32;;;13.80;90.50;;;;;;4887432;28;86884;-73
2022/11/03 10:09:57;;;;;;;12.00;6.10;;;13.90;90.40;;;;;;4890256;28;86251;-74
2022/11/03 10:12:24;;;;;;;11.52;6.15;;;14.10;90.00;;;;;;4884188;28;87067;-73
2022/11/03 10:14:50;;;;;;;15.57;6.40;;;14.50;89.80;;;;;;4885125;28;87678;-73
2022/11/03 10:17:20;;;;;;;12.57;5.70;;;14.50;88.30;;;;;;4888440;28;86350;-74
2022/11/03 10:19:50;;;;;;;12.30;6.55;;;14.40;88.10;;;;;;4885604;28;86623;-75
2022/11/03 10:22:17;;;;;;;13.25;6.35;;;14.20;88.40;;;;;;4891729;28;86818;-71
2022/11/03 10:24:42;;;;;;;11.52;5.40;;;14.10;88.90;;;;;;4891746;28;87893;-72
2022/11/03 10:27:24;;;;;;;12.93;6.03;;;14.10;89.60;;;;;;4894985;28;87839;-73
2022/11/03 10:30:08;;;;;;;11.05;5.70;;;14.00;90.30;;;;;;4890472;28;86287;-72
2022/11/03 10:32:34;;;;;;;15.20;6.25;;;14.10;89.40;;;;;;4893247;28;87003;-75
2022/11/03 10:35:01;;;;;;;15.10;6.25;;;14.20;89.30;;;;;;4891600;28;88535;-74
2022/11/03 10:37:27;;;;;;;12.40;6.32;;;14.10;89.40;;;;;;4899941;28;86949;-72
2022/11/03 10:39:55;;;;;;;11.18;6.07;;;14.10;90.20;;;;;;4901457;28;87265;-75
2022/11/03 10:42:21;;;;;;;13.45;5.95;;;14.10;89.60;;;;;;4894591;28;86119;-75
2022/11/03 10:44:51;;;;;;;11.77;6.03;;;14.00;89.60;;;;;;4897744;28;87289;-74
2022/11/03 10:47:22;;;;;;;;;;;14.10;89.30;;;;;;4899891;28;86992;-76
2022/11/03 10:49:48;;;;;;;12.07;5.60;;;14.00;89.10;;;;;;4888496;28;87920;-73
2022/11/03 10:52:31;;;;;;;14.25;5.82;;;14.20;89.40;;;;;;4889527;28;88023;-73
2022/11/03 10:54:58;;;;;;;13.40;5.85;;;14.20;89.40;;;;;;4887767;28;86633;-76
2022/11/03 10:57:25;;;;;;;14.85;5.88;;;14.20;89.60;;;;;;4887540;28;87548;-77
2022/11/03 10:59:53;;;;;;;12.88;5.75;;;14.30;88.30;;;;;;4884231;28;86986;-75
2022/11/03 11:02:25;;;;;;;10.23;5.65;;;14.40;88.30;;;;;;4892446;28;86276;-75
2022/11/03 11:04:58;;;;;;;12.68;5.78;;;14.40;87.70;;;;;;4882926;28;88442;-73
2022/11/03 11:07:38;;;;;;;11.75;6.03;;;14.40;88.20;;;;;;4890304;28;86945;-73
2022/11/03 11:10:12;;;;;;;15.07;6.07;;;14.20;88.60;;;;;;4896763;28;86870;-73
2022/11/03 11:12:38;;;;;;;10.07;5.50;;;14.10;89.20;;;;;;4899761;28;87019;-74
2022/11/03 11:15:42;;;;;;;14.25;5.97;;;14.10;89.80;;;;;;4898604;28;88032;-73
2022/11/03 11:18:09;;;;;;;11.10;5.63;;;14.10;89.30;;;;;;4887604;28;87760;-75
2022/11/03 11:20:40;;;;;;;12.32;6.10;;;14.00;89.90;;;;;;4894761;28;88428;-73
2022/11/03 11:23:27;;;;;;;11.07;5.60;;;13.90;90.00;;;;;;4895117;28;86288;-73
2022/11/03 11:26:08;;;;;;;13.57;5.70;;;14.00;90.20;;;;;;4885987;28;87186;-73
2022/11/03 11:28:38;;;;;;;13.85;5.55;;;14.00;89.90;;;;;;4897942;28;86279;-74
2022/11/03 11:31:26;;;;;;;11.55;5.50;;;14.20;89.80;;;;;;4885955;28;86322;-75
2022/11/03 11:34:22;;;;;;;12.82;6.10;;;14.20;88.90;;;;;;4896322;28;86004;-74
2022/11/03 11:36:53;;;;;;;13.88;6.22;;;14.40;88.90;;;;;;4871289;28;86700;-73
2022/11/03 11:39:19;;;;;;;18.10;6.63;;;14.30;88.90;;;;;;4893367;28;87071;-75
2022/11/03 11:42:12;;;;;;;13.90;6.43;;;14.40;90.00;;;;;;4884787;28;87119;-73
2022/11/03 11:44:38;;;;;;;11.48;5.72;;;14.30;88.00;;;;;;4892273;28;86302;-75
2022/11/03 11:47:45;;;;;;;12.43;6.25;;;14.30;87.90;;;;;;4887271;28;87674;-75
2022/11/03 11:50:13;;;;;;;16.70;6.70;;;14.40;88.30;;;;;;4894437;28;86840;-74
2022/11/03 11:52:41;;;;;;;13.98;6.55;;;14.50;87.70;;;;;;4895538;28;87100;-74
2022/11/03 11:55:39;;;;;;;12.90;6.00;;;14.40;89.10;;;;;;4894779;28;86850;-73
2022/11/03 11:58:29;;;;;;;12.75;6.15;;;14.70;88.80;;;;;;4884527;28;86752;-73
2022/11/03 12:00:58;;;;;;;14.65;5.80;;;14.80;87.50;;;;;;4896125;28;87487;-74
2022/11/03 12:03:37;;;;;;;14.65;7.20;;;14.90;86.70;;;;;;4884828;28;87505;-75
2022/11/03 12:06:04;;;;;;;12.07;6.38;;;14.90;86.10;;;;;;4895728;28;86351;-74
2022/11/03 12:08:30;;;;;;;15.43;6.68;;;14.80;86.30;;;;;;4884877;28;88221;-74
2022/11/03 12:10:59;;;;;;;16.25;6.45;;;14.80;86.60;;;;;;4892146;28;88350;-72
2022/11/03 12:13:38;;;;;;;13.68;7.25;;;14.70;86.20;;;;;;4887075;28;86590;-73
2022/11/03 12:16:04;;;;;;;13.18;6.60;;;14.60;86.50;;;;;;4885466;28;86310;-73
2022/11/03 12:18:38;;;;;;;15.60;6.45;;;14.60;87.50;;;;;;4894373;28;87644;-73
2022/11/03 12:21:06;;;;;;;13.75;6.35;;;14.60;86.70;;;;;;4893907;28;86971;-76
2022/11/03 12:23:41;;;;;;;14.43;6.30;;;14.60;86.90;;;;;;4888222;28;86477;-73
2022/11/03 12:26:18;;;;;;;13.80;6.70;;;14.60;86.30;;;;;;4896749;28;86198;-74
2022/11/03 12:28:44;;;;;;;15.80;6.90;;;14.60;87.20;;;;;;4888497;28;86758;-73
2022/11/03 12:31:09;;;;;;;17.23;6.72;;;14.70;87.00;;;;;;4889770;28;86837;-74
2022/11/03 12:33:35;;;;;;;15.55;6.85;;;14.60;86.70;;;;;;4885781;28;87230;-73
2022/11/03 12:36:01;;;;;;;16.17;6.53;;;14.60;85.90;;;;;;4890489;28;86845;-74
2022/11/03 12:38:26;;;;;;;14.82;6.85;;;14.70;86.70;;;;;;4887560;28;87336;-75
2022/11/03 12:40:52;;;;;;;15.95;7.00;;;14.90;85.30;;;;;;4886304;28;87484;-75
2022/11/03 12:43:18;;;;;;;15.38;6.82;;;14.90;85.10;;;;;;4886077;28;86686;-75
2022/11/03 12:45:44;;;;;;;19.70;7.70;;;15.00;86.20;;;;;;4884640;28;86240;-75
2022/11/03 12:48:10;;;;;;;13.68;6.15;;;15.20;83.90;;;;;;4886819;28;87237;-74
2022/11/03 12:50:38;;;;;;;13.85;6.50;;;15.20;84.30;;;;;;4882857;28;86323;-73
2022/11/03 12:53:05;;;;;;;13.80;7.25;;;15.10;83.90;;;;;;4897001;28;86536;-75
2022/11/03 12:55:31;;;;;;;15.32;6.80;;;15.10;85.40;;;;;;4883198;28;86726;-75
2022/11/03 12:57:57;;;;;;;15.77;6.65;;;15.20;84.70;;;;;;4882304;28;87548;-74
2022/11/03 13:00:23;;;;;;;15.95;6.30;;;15.20;84.20;;;;;;4887686;28;88022;-72
2022/11/03 13:02:49;;;;;;;18.25;10.23;;;15.30;83.50;;;;;;4886974;28;86670;-73
2022/11/03 13:05:14;;;;;;;13.20;6.57;;;15.30;83.50;;;;;;4899298;28;86970;-73
2022/11/03 13:07:41;;;;;;;12.43;6.45;;;15.30;81.90;;;;;;4885101;28;87168;-73
2022/11/03 13:10:08;;;;;;;11.75;5.80;;;15.20;83.30;;;;;;4892824;28;86991;-73
2022/11/03 13:12:35;;;;;;;16.63;6.47;;;15.20;82.50;;;;;;4886825;28;86325;-75
2022/11/03 13:15:03;;;;;;;10.40;5.80;;;15.00;82.60;;;;;;4890313;28;85563;-75
2022/11/03 13:17:29;;;;;;;14.45;5.70;;;14.90;83.10;;;;;;4893747;28;88674;-73
2022/11/03 13:19:55;;;;;;;12.45;5.40;;;14.90;83.90;;;;;;4892552;28;86775;-73
2022/11/03 13:22:20;;;;;;;11.65;5.75;;;14.90;83.80;;;;;;4883385;28;87709;-74
2022/11/03 13:24:46;;;;;;;12.02;5.85;;;14.90;84.10;;;;;;4883321;28;87969;-76
2022/11/03 13:27:12;;;;;;;13.25;5.93;;;14.80;83.70;;;;;;4896012;28;86737;-75
2022/11/03 13:29:38;;;;;;;16.85;6.45;;;14.70;83.80;;;;;;4883719;28;87140;-74
2022/11/03 13:32:04;;;;;;;16.23;6.60;;;14.70;84.40;;;;;;4883119;28;86789;-78
2022/11/03 13:34:30;;;;;;;12.95;5.72;;;14.70;85.00;;;;;;4885033;28;87119;-74
2022/11/03 13:36:55;;;;;;;13.05;6.15;;;14.50;84.30;;;;;;4888181;28;87831;-74
2022/11/03 13:39:21;;;;;;;14.63;5.75;;;14.60;86.20;;;;;;4882187;28;86214;-74
2022/11/03 13:41:47;;;;;;;15.43;5.93;;;14.70;86.00;;;;;;4890940;28;87431;-74
2022/11/03 13:44:13;;;;;;;15.35;5.72;;;14.70;85.90;;;;;;4892889;28;86283;-72
2022/11/03 13:46:38;;;;;;;15.40;6.15;;;14.70;86.90;;;;;;4894668;28;87723;-73
2022/11/03 13:49:05;;;;;;;18.10;6.18;;;14.70;87.10;;;;;;4890404;28;87225;-74
2022/11/03 13:51:31;;;;;;;14.68;6.85;;;14.70;87.50;;;;;;4894667;28;86335;-74
2022/11/03 13:53:56;;;;;;;15.30;6.32;;;14.70;87.70;;;;;;4881212;28;86792;-73
2022/11/03 13:56:22;;;;;;;15.20;6.57;;;14.60;87.70;;;;;;4883544;28;87275;-75
2022/11/03 13:58:48;;;;;;;16.23;7.30;;;14.60;87.70;;;;;;4880474;28;87071;-73
2022/11/03 14:01:13;;;;;;;16.23;7.10;;;14.50;88.80;;;;;;4895247;28;87180;-73
2022/11/03 14:03:39;;;;;;;18.30;7.85;;;14.50;89.00;;;;;;4890821;28;85487;-72
2022/11/03 14:06:05;;;;;;;17.30;7.63;;;14.50;88.70;;;;;;4885901;28;86649;-74
2022/11/03 14:08:31;;;;;;;16.45;7.35;;;14.40;89.70;;;;;;4889247;28;87051;-72
2022/11/03 14:10:57;;;;;;;19.58;8.63;;;14.20;90.10;;;;;;4889519;28;87529;-75
2022/11/03 14:13:22;;;;;;;21.70;8.25;;;14.10;90.20;;;;;;4881170;28;86389;-73
2022/11/03 14:15:48;;;;;;;24.33;8.15;;;14.10;90.60;;;;;;4886330;28;88164;-74
2022/11/03 14:18:13;;;;;;;25.42;8.75;;;14.00;90.70;;;;;;4897815;28;86222;-74
2022/11/03 14:20:39;;;;;;;15.68;8.38;;;13.90;91.10;;;;;;4898429;28;86520;-73
2022/11/03 14:23:05;;;;;;;17.48;8.82;;;13.80;91.10;;;;;;4898977;28;86752;-73
2022/11/03 14:25:30;;;;;;;16.05;8.32;;;13.80;91.10;;;;;;4887611;28;87233;-73
2022/11/03 14:27:56;;;;;;;15.35;8.60;;;13.80;91.20;;;;;;4891679;28;87076;-75
2022/11/03 14:30:22;;;;;;;15.15;8.02;;;13.70;91.60;;;;;;4884737;28;86277;-75
2022/11/03 14:32:47;;;;;;;19.85;8.80;;;13.60;92.00;;;;;;4883636;28;86703;-74
2022/11/03 14:35:13;;;;;;;15.00;7.88;;;13.60;92.00;;;;;;4882920;28;89034;-77
2022/11/03 14:37:38;;;;;;;16.77;8.40;;;13.50;92.40;;;;;;4881282;28;87933;-76
2022/11/03 14:40:05;;;;;;;17.65;9.25;;;13.50;92.30;;;;;;4887607;28;86216;-74
2022/11/03 14:42:31;;;;;;;17.48;7.95;;;13.50;92.60;;;;;;4885299;28;87571;-73
2022/11/03 14:44:57;;;;;;;18.65;7.85;;;13.40;92.60;;;;;;4893292;28;87284;-74
2022/11/03 14:47:24;;;;;;;13.10;7.35;;;13.30;92.80;;;;;;4880426;28;86913;-73
2022/11/03 14:49:50;;;;;;;20.13;7.85;;;13.20;93.00;;;;;;4897247;28;86805;-73
2022/11/03 14:52:16;;;;;;;19.05;7.60;;;13.20;93.40;;;;;;4897969;28;85850;-72
2022/11/03 14:54:42;;;;;;;15.10;7.75;;;13.20;93.30;;;;;;4884034;28;87428;-75
2022/11/03 14:57:08;;;;;;;17.65;8.20;;;13.20;93.20;;;;;;4894409;28;86928;-73
2022/11/03 14:59:34;;;;;;;17.30;7.28;;;13.20;93.30;;;;;;4895824;28;87722;-73
2022/11/03 15:02:01;;;;;;;12.70;7.43;;;13.20;93.40;;;;;;4891154;28;87351;-73
2022/11/03 15:04:27;;;;;;;17.77;9.27;;;13.10;93.70;;;;;;4883557;28;87384;-75
2022/11/03 15:06:53;;;;;;;19.25;8.18;;;13.10;93.90;;;;;;4889648;28;86253;-73
2022/11/03 15:09:19;;;;;;;17.20;7.97;;;13.10;94.10;;;;;;4882325;28;86391;-74
2022/11/03 15:11:45;;;;;;;16.55;7.72;;;13.10;93.70;;;;;;4896127;28;86499;-73
2022/11/03 15:14:12;;;;;;;15.10;7.70;;;13.00;93.70;;;;;;4886436;28;86805;-73
2022/11/03 15:16:38;;;;;;;17.35;8.05;;;13.00;93.50;;;;;;4898255;28;87159;-72
2022/11/03 15:19:05;;;;;;;21.30;8.70;;;12.90;93.60;;;;;;4888128;28;86608;-72
2022/11/03 15:21:31;;;;;;;21.23;7.95;;;12.80;94.00;;;;;;4883454;28;86853;-73
2022/11/03 15:23:56;;;;;;;14.85;7.85;;;12.70;94.60;;;;;;4884939;28;88571;-75
2022/11/03 15:26:22;;;;;;;19.05;8.57;;;12.70;94.80;;;;;;4895954;28;87858;-75
2022/11/03 15:28:48;;;;;;;20.70;8.32;;;12.80;94.80;;;;;;4885657;28;86787;-73
2022/11/03 15:31:13;;;;;;;18.08;8.10;;;12.80;94.90;;;;;;4889380;28;86768;-76
2022/11/03 15:33:39;;;;;;;17.85;8.82;;;12.70;95.20;;;;;;4888421;28;86567;-75
2022/11/03 15:36:06;;;;;;;18.38;7.80;;;12.60;95.30;;;;;;4884556;28;88080;-72
2022/11/03 15:38:33;;;;;;;17.95;8.25;;;12.70;95.50;;;;;;4891749;28;87002;-74
2022/11/03 15:41:14;;;;;;;15.40;7.90;;;12.60;95.50;;;;;;4892247;28;86262;-73
2022/11/03 15:43:41;;;;;;;17.23;8.60;;;12.60;95.30;;;;;;4893405;28;87862;-75
2022/11/03 15:46:08;;;;;;;16.88;8.23;;;12.60;95.20;;;;;;4892474;28;86822;-74
2022/11/03 15:48:33;;;;;;;18.45;8.75;;;12.50;95.10;;;;;;4897222;28;87204;-73
2022/11/03 15:50:59;;;;;;;18.35;7.82;;;12.50;95.30;;;;;;4888199;28;86874;-74
2022/11/03 15:53:25;;;;;;;16.20;8.05;;;12.50;95.40;;;;;;4892908;28;87705;-76
2022/11/03 15:55:50;;;;;;;18.60;7.45;;;12.50;95.40;;;;;;4889187;28;86890;-71
2022/11/03 15:58:16;;;;;;;19.25;8.00;;;12.40;95.20;;;;;;4885112;28;86199;-76
2022/11/03 16:00:42;;;;;;;18.48;7.93;;;12.40;95.40;;;;;;4889984;28;86598;-75
2022/11/03 16:03:07;;;;;;;15.80;7.97;;;12.40;95.50;;;;;;4886392;28;87350;-74
2022/11/03 16:05:33;;;;;;;21.63;8.15;;;12.40;95.60;;;;;;4897696;28;87030;-76
2022/11/03 16:07:59;;;;;;;14.07;7.55;;;12.30;96.00;;;;;;4887835;28;86293;-73
2022/11/03 16:10:25;;;;;;;18.33;7.93;;;12.30;96.10;;;;;;4889856;28;86669;-74
2022/11/03 16:12:50;;;;;;;15.23;7.38;;;12.30;96.10;;;;;;4892916;28;87498;-74
2022/11/03 16:15:16;;;;;;;16.02;7.70;;;12.30;96.10;;;;;;4887075;28;87398;-76
2022/11/03 16:17:42;;;;;;;17.92;7.57;;;12.30;96.20;;;;;;4881918;28;87437;-72
2022/11/03 16:20:10;;;;;;;14.10;7.50;;;12.30;96.30;;;;;;4890158;28;86424;-72
2022/11/03 16:22:36;;;;;;;16.05;7.35;;;12.30;95.90;;;;;;4892615;28;86884;-72
2022/11/03 16:25:02;;;;;;;17.95;7.57;;;12.30;95.80;;;;;;4888902;28;87194;-74
2022/11/03 16:27:28;;;;;;;17.65;8.13;;;12.30;95.90;;;;;;4889237;28;86666;-74
2022/11/03 16:29:54;;;;;;;16.42;7.20;;;12.30;95.90;;;;;;4891297;28;85566;-73
2022/11/03 16:32:20;;;;;;;18.02;8.10;;;12.30;95.90;;;;;;4889149;28;87309;-73
2022/11/03 16:34:47;;;;;;;16.63;7.57;;;12.20;96.00;;;;;;4887239;28;86923;-73
2022/11/03 16:37:13;;;;;;;15.73;7.38;;;12.20;96.20;;;;;;4893536;28;87625;-73
2022/11/03 16:39:39;;;;;;;16.88;7.68;;;12.20;96.40;;;;;;4894828;28;86942;-75
2022/11/03 16:42:05;;;;;;;17.35;6.97;;;12.30;96.20;;;;;;4889170;28;87795;-72
2022/11/03 16:44:31;;;;;;;17.30;7.70;;;12.30;96.10;;;;;;4889480;28;86598;-73
2022/11/03 16:46:56;;;;;;;17.52;7.55;;;12.20;96.50;;;;;;4887403;28;87325;-74
2022/11/03 16:49:22;;;;;;;20.95;8.02;;;12.20;96.60;;;;;;4892207;28;86787;-73
2022/11/03 16:51:48;;;;;;;21.42;8.05;;;12.20;96.70;;;;;;4896054;28;86849;-74